Fort Qu'Appelle, Canada
Current Conditions -  °F | °C
As of 3:00 PM on Saturday 25 Oct 2014 (Local Time) from CYQR Reporting Station
Broken Clouds Broken Clouds  
Wind Chill: 13°   Ceiling: 24000
Heat Index: 13°   Visibility: 15mi
Dew Point:   Wind: 8mph
Humidity: 41%   Direction: 80°E
Pressure: 29.99"   Gusts: NA
Location:  50.77°N, 103.78°W
Report Text: CYQR 252100Z 08007KT 15SM FEW100 BKN240 13/00 A2999 RMK AC1CI7 AC TR SLP176 DENSITY ALT 2000FT
Loading
Personal Weather Stations






























Interactive Weather Map
Tropical Storm Tracking
New forecast layout! Learn more

10-Day Weather Forecast

Advertisements
Track Severe Weather on mobile